Rio Verde, Arizona
Current Conditions -  °F | °C
As of 4:53 PM on Wednesday 22 Oct 2014 (Local Time) from KSDL Reporting Station
Clear Clear  
Wind Chill: 87°   Ceiling: Unl
Heat Index: 87°   Visibility: 10mi
Dew Point: 46°   Wind: 3mph
Humidity: 24%   Direction: 210°SSW
Pressure: 29.92"   Gusts: NA
Location:  33.72°N, 111.67°W
Report Text: KSDL 222353Z 21003KT 10SM CLR 31/08 A2992 RMK AO2 SLP111 T03060078 10317 20278 56006
Loading
Personal Weather Stations






























Interactive Weather Map
Tropical Storm Tracking
New forecast layout! Learn more

10-Day Weather Forecast

Advertisements
Track Severe Weather on mobile